Time;durP1;ratioP1;P1;durP2;ratioP2;P2;SDS_P1;SDS_P2;PMS_P1;PMS_P2;Temp;Humidity;BMP_temperature;BMP_pressure;BME280_temperature;BME280_humidity;BME280_pressure;Samples;Min_cycle;Max_cycle;Signal;HPM_P1;HPM_P2
2023/06/21 00:01:46;;;;;;;7.72;4.05;;;19.10;99.90;;;;;;5056283;28;20081;-68
2023/06/21 00:04:11;;;;;;;5.30;3.65;;;19.10;99.90;;;;;;5056330;28;20031;-68
2023/06/21 00:06:38;;;;;;;8.30;3.90;;;19.10;99.90;;;;;;5056338;28;20032;-70
2023/06/21 00:09:03;;;;;;;6.10;3.90;;;19.00;99.90;;;;;;5038223;28;20025;-70
2023/06/21 00:11:30;;;;;;;6.53;4.07;;;19.10;99.90;;;;;;5037948;28;20032;-70
2023/06/21 00:13:56;;;;;;;8.43;4.60;;;19.10;99.90;;;;;;5055805;28;20108;-71
2023/06/21 00:16:23;;;;;;;7.32;4.45;;;19.10;99.90;;;;;;5037539;28;20108;-71
2023/06/21 00:18:49;;;;;;;8.07;5.90;;;19.10;99.90;;;;;;5055775;28;20068;-70
2023/06/21 00:21:15;;;;;;;8.88;5.93;;;19.10;99.90;;;;;;5055777;28;20017;-70
2023/06/21 00:23:43;;;;;;;8.30;5.63;;;19.10;99.90;;;;;;5055304;28;20029;-70
2023/06/21 00:26:09;;;;;;;11.63;6.00;;;19.10;99.90;;;;;;5036515;28;20032;-70
2023/06/21 00:28:35;;;;;;;11.05;6.93;;;19.10;99.90;;;;;;5055925;28;20021;-70
2023/06/21 00:31:01;;;;;;;9.43;7.25;;;19.10;99.90;;;;;;5055075;28;20060;-72
2023/06/21 00:33:26;;;;;;;12.00;7.85;;;19.00;99.90;;;;;;5038052;28;20013;-72
2023/06/21 00:35:53;;;;;;;13.35;9.18;;;19.00;99.90;;;;;;5055788;28;20020;-70
2023/06/21 00:38:20;;;;;;;21.25;9.85;;;18.80;99.90;;;;;;5055974;28;20064;-70
2023/06/21 00:40:47;;;;;;;18.08;10.82;;;18.90;99.90;;;;;;5037928;28;20858;-71
2023/06/21 00:43:14;;;;;;;52.15;15.25;;;18.90;99.90;;;;;;5055456;28;20017;-69
2023/06/21 00:45:45;;;;;;;25.35;14.82;;;18.90;99.90;;;;;;5036959;28;20025;-71
2023/06/21 00:48:11;;;;;;;21.52;14.07;;;18.80;99.90;;;;;;5037735;28;20075;-70
2023/06/21 00:50:38;;;;;;;21.85;13.00;;;18.70;99.90;;;;;;5055051;28;20017;-71
2023/06/21 00:53:04;;;;;;;22.02;14.15;;;18.70;99.90;;;;;;5037269;28;20033;-71
2023/06/21 00:55:30;;;;;;;20.98;13.65;;;18.80;99.90;;;;;;5055152;28;20116;-70
2023/06/21 00:57:57;;;;;;;26.17;16.02;;;18.80;99.90;;;;;;5055267;28;20041;-71
2023/06/21 01:00:24;;;;;;;26.17;15.57;;;18.80;99.90;;;;;;5055185;28;20031;-71
2023/06/21 01:02:54;;;;;;;28.50;17.70;;;18.80;99.90;;;;;;5037146;28;20021;-71
2023/06/21 01:05:23;;;;;;;31.98;18.83;;;18.80;99.90;;;;;;5037332;28;20067;-73
2023/06/21 01:08:27;;;;;;;35.00;19.58;;;18.80;99.90;;;;;;5054549;28;20127;-71
2023/06/21 01:11:18;;;;;;;40.55;22.83;;;18.70;99.90;;;;;;5055454;28;20075;-71
2023/06/21 01:14:21;;;;;;;41.80;23.45;;;18.70;99.90;;;;;;5036548;28;20025;-70
2023/06/21 01:16:49;;;;;;;44.63;25.20;;;18.70;99.90;;;;;;5037505;28;20039;-71
2023/06/21 01:19:43;;;;;;;46.08;25.13;;;18.70;99.90;;;;;;5055312;28;20120;-71
2023/06/21 01:22:21;;;;;;;41.45;22.80;;;18.70;99.90;;;;;;5036353;28;20026;-70
2023/06/21 01:25:12;;;;;;;36.70;21.77;;;18.70;99.90;;;;;;5054819;28;20032;-70
2023/06/21 01:27:57;;;;;;;28.48;18.25;;;18.70;99.90;;;;;;5055316;28;20025;-71
2023/06/21 01:30:25;;;;;;;24.02;16.77;;;18.70;99.90;;;;;;5053600;28;20073;-72
2023/06/21 01:32:53;;;;;;;23.25;16.15;;;18.60;99.90;;;;;;5054538;28;20017;-71
2023/06/21 01:35:21;;;;;;;23.75;15.52;;;18.60;99.90;;;;;;5054665;28;20017;-71
2023/06/21 01:37:51;;;;;;;20.33;14.77;;;18.60;99.90;;;;;;5054458;28;21523;-72
2023/06/21 01:40:17;;;;;;;21.45;14.70;;;18.60;99.90;;;;;;5054285;28;20191;-72
2023/06/21 01:42:44;;;;;;;25.88;16.17;;;18.60;99.90;;;;;;5052904;28;20025;-72
2023/06/21 01:45:10;;;;;;;20.85;15.18;;;18.60;99.90;;;;;;5035971;28;20056;-72
2023/06/21 01:47:38;;;;;;;22.48;16.08;;;18.60;99.90;;;;;;5053582;28;20032;-74
2023/06/21 01:50:05;;;;;;;25.75;16.50;;;18.60;99.90;;;;;;5054190;28;20017;-72
2023/06/21 01:52:33;;;;;;;24.75;17.27;;;18.60;99.90;;;;;;5035957;28;20033;-72
2023/06/21 01:54:59;;;;;;;27.02;17.60;;;18.60;99.90;;;;;;5053348;28;20013;-72
2023/06/21 01:57:26;;;;;;;25.88;18.65;;;18.60;99.90;;;;;;5053844;28;20029;-73
2023/06/21 01:59:53;;;;;;;27.10;19.30;;;18.60;99.90;;;;;;5053523;28;20580;-72
2023/06/21 02:02:21;;;;;;;29.73;20.15;;;18.60;99.90;;;;;;5053946;28;20025;-71
2023/06/21 02:04:48;;;;;;;30.77;20.73;;;18.60;99.90;;;;;;5054080;28;20037;-72
2023/06/21 02:07:15;;;;;;;28.70;20.70;;;18.70;99.90;;;;;;5053875;28;20072;-71
2023/06/21 02:09:42;;;;;;;32.20;20.92;;;18.70;99.90;;;;;;5035736;28;20021;-72
2023/06/21 02:12:09;;;;;;;30.17;19.70;;;18.70;99.90;;;;;;5035209;28;20071;-72
2023/06/21 02:14:37;;;;;;;30.85;21.08;;;18.70;99.90;;;;;;5034622;28;20053;-72
2023/06/21 02:17:03;;;;;;;34.30;22.25;;;18.70;99.90;;;;;;5035162;28;20032;-72
2023/06/21 02:19:29;;;;;;;34.90;23.25;;;18.70;99.90;;;;;;5053194;28;20026;-72
2023/06/21 02:21:54;;;;;;;37.70;23.65;;;18.70;99.90;;;;;;5035683;28;20059;-73
2023/06/21 02:24:20;;;;;;;40.75;25.25;;;18.70;99.90;;;;;;5052620;28;20025;-73
2023/06/21 02:26:45;;;;;;;41.08;26.42;;;18.70;99.90;;;;;;5053785;28;20025;-72
2023/06/21 02:29:11;;;;;;;43.40;27.58;;;18.70;99.90;;;;;;5053912;28;20032;-72
2023/06/21 02:31:37;;;;;;;49.97;32.08;;;18.70;99.90;;;;;;5053020;28;20060;-71
2023/06/21 02:34:03;;;;;;;52.17;33.13;;;18.70;99.90;;;;;;5035175;28;20390;-72
2023/06/21 02:36:29;;;;;;;61.85;34.67;;;18.80;99.90;;;;;;5053430;28;20040;-72
2023/06/21 02:38:55;;;;;;;59.70;36.90;;;18.80;99.90;;;;;;5053846;28;20025;-71
2023/06/21 02:41:23;;;;;;;69.72;40.20;;;18.80;99.90;;;;;;5053239;28;20060;-71
2023/06/21 02:43:49;;;;;;;59.75;38.08;;;18.80;99.90;;;;;;5053098;28;20025;-71
2023/06/21 02:46:14;;;;;;;71.72;41.92;;;18.80;99.90;;;;;;5034812;28;20032;-71
2023/06/21 02:48:40;;;;;;;76.22;43.33;;;18.80;99.90;;;;;;5053667;28;20136;-71
2023/06/21 02:51:05;;;;;;;79.38;45.28;;;18.90;99.90;;;;;;5053033;28;20393;-71
2023/06/21 02:53:31;;;;;;;83.00;47.42;;;18.90;99.90;;;;;;5052971;28;20028;-73
2023/06/21 02:55:57;;;;;;;88.07;47.95;;;18.90;99.90;;;;;;5035076;28;20493;-72
2023/06/21 02:58:23;;;;;;;85.90;48.67;;;18.90;99.90;;;;;;5051961;28;20120;-72
2023/06/21 03:00:48;;;;;;;80.10;47.72;;;18.90;99.90;;;;;;5052214;28;20056;-70
2023/06/21 03:03:14;;;;;;;91.82;52.15;;;18.90;99.90;;;;;;5052757;28;20021;-72
2023/06/21 03:05:40;;;;;;;92.13;52.70;;;18.90;99.90;;;;;;5052753;28;20036;-72
2023/06/21 03:08:07;;;;;;;89.22;50.40;;;19.00;99.90;;;;;;5052583;28;20090;-71
2023/06/21 03:10:33;;;;;;;89.97;48.70;;;18.90;99.90;;;;;;5052441;28;20039;-71
2023/06/21 03:12:59;;;;;;;104.85;52.22;;;19.00;99.90;;;;;;5051611;28;20040;-72
2023/06/21 03:15:25;;;;;;;90.35;49.63;;;19.00;99.90;;;;;;5052924;28;20036;-70
2023/06/21 03:17:51;;;;;;;82.03;47.42;;;19.00;99.90;;;;;;5034425;28;20036;-71
2023/06/21 03:20:17;;;;;;;89.45;50.35;;;19.00;99.90;;;;;;5034774;28;20021;-70
2023/06/21 03:22:46;;;;;;;82.68;47.90;;;19.00;99.90;;;;;;5052901;28;20016;-71
2023/06/21 03:25:13;;;;;;;87.55;50.90;;;19.10;99.90;;;;;;5051611;28;20033;-70
2023/06/21 03:27:39;;;;;;;90.75;52.35;;;19.10;99.90;;;;;;5052513;28;20448;-70
2023/06/21 03:30:06;;;;;;;107.32;56.28;;;19.10;99.90;;;;;;5050550;28;20025;-69
2023/06/21 03:32:32;;;;;;;96.63;54.38;;;19.00;99.90;;;;;;5052158;28;20028;-72
2023/06/21 03:34:59;;;;;;;95.38;56.25;;;19.10;99.90;;;;;;5034314;28;20017;-72
2023/06/21 03:37:28;;;;;;;106.85;59.20;;;19.10;99.90;;;;;;5052712;28;20136;-71
2023/06/21 03:39:53;;;;;;;102.65;58.08;;;19.10;99.90;;;;;;5034404;28;20031;-70
2023/06/21 03:42:19;;;;;;;95.40;54.85;;;19.10;99.90;;;;;;5051361;28;20452;-73
2023/06/21 03:44:45;;;;;;;86.97;53.38;;;19.00;99.90;;;;;;5052494;28;20381;-73
2023/06/21 03:47:11;;;;;;;96.65;56.72;;;19.00;99.90;;;;;;5052108;28;20026;-71
2023/06/21 03:49:38;;;;;;;85.88;53.92;;;19.00;99.90;;;;;;5034222;28;20040;-71
2023/06/21 03:52:04;;;;;;;89.50;53.13;;;19.00;99.90;;;;;;5051620;28;20037;-71
2023/06/21 03:54:30;;;;;;;91.22;53.95;;;19.00;99.90;;;;;;5033719;28;20025;-74
2023/06/21 03:56:55;;;;;;;110.88;58.45;;;19.00;99.90;;;;;;5052507;28;20036;-69
2023/06/21 03:59:21;;;;;;;94.65;55.17;;;19.00;99.90;;;;;;5052114;28;20025;-71
2023/06/21 04:01:46;;;;;;;96.90;55.30;;;19.00;99.90;;;;;;5052317;28;20026;-71
2023/06/21 04:04:13;;;;;;;87.63;53.70;;;19.00;99.90;;;;;;5051952;28;20036;-71
2023/06/21 04:06:38;;;;;;;90.35;52.03;;;19.00;99.90;;;;;;5034493;28;20041;-71
2023/06/21 04:09:05;;;;;;;88.97;52.72;;;19.00;99.90;;;;;;5051950;28;20025;-72
2023/06/21 04:11:31;;;;;;;90.95;51.97;;;19.00;99.90;;;;;;5052246;28;20093;-71
2023/06/21 04:13:56;;;;;;;84.25;50.63;;;19.00;99.90;;;;;;5051785;28;20045;-70
2023/06/21 04:16:22;;;;;;;98.90;52.92;;;18.90;99.90;;;;;;5051378;28;20022;-72
2023/06/21 04:18:47;;;;;;;89.75;53.22;;;19.00;99.90;;;;;;5052371;28;20033;-69
2023/06/21 04:21:13;;;;;;;85.25;51.13;;;19.00;99.90;;;;;;5051982;28;20037;-69
2023/06/21 04:23:40;;;;;;;90.55;52.70;;;19.00;99.90;;;;;;5032813;28;20041;-71
2023/06/21 04:26:06;;;;;;;87.32;52.35;;;18.90;99.90;;;;;;5051417;28;20025;-71
2023/06/21 04:28:32;;;;;;;81.20;49.47;;;19.00;99.90;;;;;;5051565;28;20017;-70
2023/06/21 04:31:00;;;;;;;90.85;52.22;;;19.00;99.90;;;;;;5050911;28;20061;-72
2023/06/21 04:33:28;;;;;;;86.80;51.53;;;19.00;99.90;;;;;;5034404;28;20067;-72
2023/06/21 04:35:54;;;;;;;86.50;51.33;;;19.00;99.90;;;;;;5051637;28;20025;-71
2023/06/21 04:38:20;;;;;;;85.10;48.97;;;19.00;99.90;;;;;;5033737;28;20406;-70
2023/06/21 04:40:45;;;;;;;81.00;50.83;;;19.00;99.90;;;;;;5051798;28;20026;-72
2023/06/21 04:43:11;;;;;;;77.07;48.55;;;19.00;99.90;;;;;;5053438;28;20033;-72
2023/06/21 04:45:36;;;;;;;80.13;46.63;;;19.00;99.90;;;;;;5037515;28;20466;-72
2023/06/21 04:48:04;;;;;;;79.63;47.35;;;19.00;99.90;;;;;;5055305;28;20056;-71
2023/06/21 04:50:31;;;;;;;74.70;46.58;;;19.00;99.90;;;;;;5054797;28;20029;-72
2023/06/21 04:52:59;;;;;;;71.68;46.58;;;19.00;99.90;;;;;;5055368;28;20067;-71
2023/06/21 04:55:27;;;;;;;86.65;48.92;;;19.00;99.90;;;;;;5037008;28;20033;-74
2023/06/21 04:57:53;;;;;;;72.28;45.25;;;18.90;99.90;;;;;;5052209;28;20065;-71
2023/06/21 05:00:19;;;;;;;76.75;46.17;;;19.00;99.90;;;;;;5054568;28;20017;-71
2023/06/21 05:02:46;;;;;;;66.88;43.38;;;19.00;99.90;;;;;;5054945;28;20096;-73
2023/06/21 05:05:12;;;;;;;67.95;44.47;;;19.00;99.90;;;;;;5054103;28;20025;-72
2023/06/21 05:07:38;;;;;;;69.50;44.00;;;19.00;99.90;;;;;;5037348;28;20017;-70
2023/06/21 05:10:08;;;;;;;67.75;44.88;;;19.00;99.90;;;;;;5054439;28;20040;-70
2023/06/21 05:12:34;;;;;;;70.13;45.25;;;19.00;99.90;;;;;;5054852;28;20029;-71
2023/06/21 05:15:00;;;;;;;71.55;46.00;;;19.10;99.90;;;;;;5054331;28;20041;-74
2023/06/21 05:17:26;;;;;;;69.80;45.75;;;19.00;99.90;;;;;;5034731;28;20095;-74
2023/06/21 05:19:52;;;;;;;70.82;45.50;;;19.10;99.90;;;;;;5053002;28;20025;-73
2023/06/21 05:22:17;;;;;;;72.45;47.53;;;19.10;99.90;;;;;;5035513;28;20021;-71
2023/06/21 05:24:43;;;;;;;70.45;46.70;;;19.10;99.90;;;;;;5053836;28;20048;-72
2023/06/21 05:27:09;;;;;;;71.90;47.42;;;19.10;99.90;;;;;;5037196;28;20025;-72
2023/06/21 05:29:35;;;;;;;81.70;50.05;;;19.10;99.90;;;;;;5054075;28;20533;-73
2023/06/21 05:32:01;;;;;;;73.55;48.35;;;19.10;99.90;;;;;;5054604;28;20072;-71
2023/06/21 05:34:28;;;;;;;73.93;48.15;;;19.10;99.90;;;;;;5035598;28;20025;-73
2023/06/21 05:36:54;;;;;;;74.88;49.10;;;19.10;99.90;;;;;;5050527;28;20048;-72
2023/06/21 05:39:20;;;;;;;79.72;50.28;;;19.10;99.90;;;;;;5051668;28;20025;-72
2023/06/21 05:41:45;;;;;;;73.05;47.80;;;19.10;99.90;;;;;;5034744;28;20461;-70
2023/06/21 05:44:11;;;;;;;70.43;46.95;;;19.20;99.90;;;;;;5051152;28;20040;-70
2023/06/21 05:46:36;;;;;;;86.88;49.88;;;19.20;99.90;;;;;;5051946;28;20037;-71
2023/06/21 05:49:02;;;;;;;80.38;50.58;;;19.20;99.90;;;;;;5036079;28;20028;-73
2023/06/21 05:51:27;;;;;;;76.70;49.90;;;19.20;99.90;;;;;;5054187;28;20112;-72
2023/06/21 05:53:56;;;;;;;70.88;48.28;;;19.20;99.90;;;;;;5051892;28;20113;-72
2023/06/21 05:56:24;;;;;;;71.03;48.85;;;19.20;99.90;;;;;;5035787;28;20037;-72
2023/06/21 05:58:53;;;;;;;68.60;47.65;;;19.20;99.90;;;;;;5033046;28;20053;-71
2023/06/21 06:01:19;;;;;;;73.40;48.40;;;19.30;99.90;;;;;;5051490;28;20034;-71
2023/06/21 06:03:44;;;;;;;69.32;46.72;;;19.20;99.90;;;;;;5053725;28;20984;-70
2023/06/21 06:06:13;;;;;;;75.55;47.75;;;19.30;99.90;;;;;;5052532;28;20459;-70
2023/06/21 06:08:39;;;;;;;73.95;47.38;;;19.30;99.90;;;;;;5035701;28;20047;-72
2023/06/21 06:11:05;;;;;;;70.32;47.67;;;19.30;99.90;;;;;;5053387;28;20079;-72
2023/06/21 06:13:30;;;;;;;75.03;47.17;;;19.40;99.90;;;;;;5036005;28;20056;-69
2023/06/21 06:15:56;;;;;;;72.65;45.25;;;19.40;99.90;;;;;;5052828;28;20100;-72
2023/06/21 06:18:21;;;;;;;68.43;45.80;;;19.40;99.90;;;;;;5035854;28;20040;-70
2023/06/21 06:20:47;;;;;;;83.07;49.45;;;19.50;99.90;;;;;;5054028;28;20108;-68
2023/06/21 06:23:12;;;;;;;70.68;45.92;;;19.50;99.90;;;;;;5053990;28;20032;-70
2023/06/21 06:25:38;;;;;;;66.65;44.67;;;19.60;99.90;;;;;;5035634;28;20029;-72
2023/06/21 06:28:04;;;;;;;67.90;44.92;;;19.60;99.90;;;;;;5053804;28;20466;-70
2023/06/21 06:30:30;;;;;;;67.78;45.78;;;19.70;99.90;;;;;;5051011;28;20056;-71
2023/06/21 06:32:56;;;;;;;64.90;45.25;;;19.60;99.90;;;;;;5053829;28;20100;-68
2023/06/21 06:35:22;;;;;;;66.43;45.40;;;19.70;99.90;;;;;;5034129;28;20029;-70
2023/06/21 06:37:48;;;;;;;64.70;44.92;;;19.70;99.90;;;;;;5053539;28;20032;-70
2023/06/21 06:40:13;;;;;;;62.92;43.80;;;19.70;99.90;;;;;;5035956;28;20060;-70
2023/06/21 06:42:39;;;;;;;64.78;43.95;;;19.70;99.90;;;;;;5034561;28;20107;-73
2023/06/21 06:45:05;;;;;;;61.80;44.17;;;19.80;99.90;;;;;;5051332;28;20385;-70
2023/06/21 06:47:31;;;;;;;60.28;42.80;;;19.80;99.90;;;;;;5053636;28;20021;-72
2023/06/21 06:49:57;;;;;;;60.80;43.30;;;19.80;99.90;;;;;;5033952;28;20727;-71
2023/06/21 06:52:23;;;;;;;63.50;43.00;;;19.90;99.90;;;;;;5048669;28;20040;-73
2023/06/21 06:54:48;;;;;;;61.25;42.35;;;19.90;99.90;;;;;;5047109;28;20053;-72
2023/06/21 06:57:14;;;;;;;62.22;43.25;;;20.00;99.90;;;;;;5043341;28;20034;-70
2023/06/21 06:59:41;;;;;;;60.05;40.63;;;20.10;99.90;;;;;;5043089;28;20034;-73
2023/06/21 07:02:09;;;;;;;61.60;42.13;;;20.00;99.90;;;;;;5028483;28;20053;-70
2023/06/21 07:04:34;;;;;;;62.83;42.38;;;20.00;99.90;;;;;;5025337;28;20025;-73
2023/06/21 07:07:01;;;;;;;58.47;41.85;;;20.00;99.90;;;;;;5044220;28;20029;-73
2023/06/21 07:09:27;;;;;;;57.95;40.85;;;19.90;99.90;;;;;;5045313;28;20026;-72
2023/06/21 07:11:56;;;;;;;55.72;40.15;;;20.00;99.90;;;;;;5044682;28;20060;-73
2023/06/21 07:14:23;;;;;;;58.13;40.75;;;20.00;99.90;;;;;;5044775;28;20116;-73
2023/06/21 07:16:50;;;;;;;53.65;38.80;;;20.10;99.90;;;;;;5042655;28;20044;-73
2023/06/21 07:19:16;;;;;;;55.08;39.17;;;20.10;99.90;;;;;;5043590;28;20033;-71
2023/06/21 07:21:42;;;;;;;53.83;39.08;;;20.10;99.90;;;;;;5044618;28;20037;-75
2023/06/21 07:24:07;;;;;;;54.80;39.28;;;20.10;99.90;;;;;;5044506;28;20029;-73
2023/06/21 07:26:33;;;;;;;51.78;38.00;;;20.10;99.90;;;;;;5044652;28;20030;-73
2023/06/21 07:28:59;;;;;;;50.50;34.22;;;20.10;99.90;;;;;;5027030;28;20097;-73
2023/06/21 07:31:25;;;;;;;49.50;36.20;;;20.10;99.90;;;;;;5043316;28;20041;-72
2023/06/21 07:33:56;;;;;;;48.22;33.55;;;20.20;99.90;;;;;;5023462;28;20040;-71
2023/06/21 07:36:21;;;;;;;46.95;32.30;;;20.30;99.90;;;;;;5036579;28;20085;-74
2023/06/21 07:38:48;;;;;;;39.90;30.02;;;20.30;99.90;;;;;;5026403;28;20045;-75
2023/06/21 07:41:14;;;;;;;43.90;30.25;;;20.40;99.90;;;;;;5042505;28;20105;-72
2023/06/21 07:43:39;;;;;;;41.65;29.55;;;20.40;99.90;;;;;;5043609;28;20034;-70
2023/06/21 07:46:05;;;;;;;45.58;32.17;;;20.50;99.90;;;;;;5043919;28;20044;-72
2023/06/21 07:48:31;;;;;;;47.40;32.85;;;20.50;99.90;;;;;;5026984;28;20036;-74
2023/06/21 07:50:56;;;;;;;46.47;32.80;;;20.40;99.90;;;;;;5026659;28;20058;-74
2023/06/21 07:53:22;;;;;;;43.72;33.38;;;20.50;99.90;;;;;;5033515;28;20041;-73
2023/06/21 07:55:47;;;;;;;44.38;33.08;;;20.50;99.90;;;;;;5043043;28;20024;-71
2023/06/21 07:58:13;;;;;;;39.83;29.38;;;20.50;99.90;;;;;;5044564;28;20493;-73
2023/06/21 08:00:38;;;;;;;40.78;31.23;;;20.60;99.90;;;;;;5043554;28;20025;-72
2023/06/21 08:03:04;;;;;;;42.28;29.85;;;20.70;99.90;;;;;;5025824;28;20025;-72
2023/06/21 08:05:30;;;;;;;44.03;28.95;;;20.80;99.90;;;;;;5044390;28;20069;-75
2023/06/21 08:08:01;;;;;;;38.35;27.95;;;20.90;99.90;;;;;;5025611;28;20033;-73
2023/06/21 08:10:31;;;;;;;41.88;28.45;;;20.90;99.90;;;;;;5029348;28;20111;-70
2023/06/21 08:12:57;;;;;;;39.90;28.02;;;21.00;99.90;;;;;;5037268;28;20047;-72
2023/06/21 08:15:23;;;;;;;38.88;28.80;;;21.00;99.90;;;;;;5038515;28;20684;-76
2023/06/21 08:17:49;;;;;;;39.95;29.63;;;21.10;99.90;;;;;;5031027;28;20136;-75
2023/06/21 08:20:15;;;;;;;35.13;26.83;;;21.10;99.90;;;;;;5029821;28;20093;-74
2023/06/21 08:22:40;;;;;;;35.35;25.33;;;21.10;99.90;;;;;;5042503;28;20021;-75
2023/06/21 08:25:06;;;;;;;31.80;24.50;;;21.10;99.90;;;;;;5045022;28;20037;-74
2023/06/21 08:27:32;;;;;;;28.45;22.75;;;21.10;99.90;;;;;;5044992;28;20079;-73
2023/06/21 08:29:57;;;;;;;34.05;25.23;;;21.20;99.90;;;;;;5028837;28;20093;-76
2023/06/21 08:32:24;;;;;;;32.78;25.17;;;21.30;99.90;;;;;;5032526;28;20053;-74
2023/06/21 08:34:50;;;;;;;35.00;26.52;;;21.40;99.90;;;;;;5041654;28;21087;-74
2023/06/21 08:37:21;;;;;;;34.78;26.88;;;21.40;99.90;;;;;;5037741;28;20029;-73
2023/06/21 08:39:48;;;;;;;35.65;26.70;;;21.50;99.90;;;;;;5041323;28;20164;-74
2023/06/21 08:42:14;;;;;;;33.10;25.33;;;21.50;99.90;;;;;;5027322;28;20033;-75
2023/06/21 08:44:40;;;;;;;31.83;23.15;;;21.50;99.90;;;;;;5018680;28;20035;-70
2023/06/21 08:47:07;;;;;;;30.23;23.15;;;21.50;99.90;;;;;;5031535;28;20026;-73
2023/06/21 08:49:37;;;;;;;34.70;23.65;;;21.50;99.90;;;;;;5031988;28;20117;-73
2023/06/21 08:52:07;;;;;;;30.63;22.88;;;21.50;99.90;;;;;;5030843;28;20033;-76
2023/06/21 08:54:35;;;;;;;29.08;21.08;;;21.60;99.90;;;;;;5030470;28;20063;-75
2023/06/21 08:57:13;;;;;;;25.27;18.70;;;21.70;99.90;;;;;;5013907;28;20569;-74
2023/06/21 08:59:41;;;;;;;25.35;18.50;;;21.80;99.90;;;;;;5016743;28;20033;-75
2023/06/21 09:02:37;;;;;;;26.15;18.88;;;21.80;99.90;;;;;;5031962;28;20029;-75
2023/06/21 09:05:06;;;;;;;25.38;19.17;;;21.90;99.90;;;;;;5032373;28;20030;-73
2023/06/21 09:07:35;;;;;;;26.42;19.38;;;22.10;99.90;;;;;;5037058;28;20060;-74
2023/06/21 09:10:02;;;;;;;25.35;18.98;;;22.20;99.90;;;;;;5039364;28;20029;-75
2023/06/21 09:12:30;;;;;;;25.77;20.48;;;22.20;99.90;;;;;;5045600;28;20552;-77
2023/06/21 09:14:56;;;;;;;22.92;18.67;;;22.20;99.90;;;;;;5045112;28;20083;-80
2023/06/21 09:17:23;;;;;;;23.77;18.60;;;22.20;99.90;;;;;;5042441;28;20079;-70
2023/06/21 09:19:50;;;;;;;25.27;19.20;;;22.20;99.90;;;;;;5035458;28;20026;-79
2023/06/21 09:22:17;;;;;;;25.20;18.35;;;22.20;99.90;;;;;;5027450;28;20029;-72
2023/06/21 09:24:44;;;;;;;24.55;18.77;;;22.30;99.90;;;;;;5046090;28;20038;-75
2023/06/21 09:27:10;;;;;;;21.40;18.25;;;22.30;99.90;;;;;;5032047;28;20042;-75
2023/06/21 09:29:35;;;;;;;24.13;18.92;;;22.40;99.90;;;;;;5045295;28;20029;-72
2023/06/21 09:32:01;;;;;;;26.10;18.58;;;22.40;99.90;;;;;;5045629;28;20059;-77
2023/06/21 09:34:27;;;;;;;24.52;18.42;;;22.50;99.90;;;;;;5046462;28;20029;-73
2023/06/21 09:36:54;;;;;;;23.70;18.13;;;22.50;99.90;;;;;;5045519;28;20025;-72
2023/06/21 09:39:23;;;;;;;20.30;14.93;;;22.60;99.90;;;;;;5043849;28;20076;-75
2023/06/21 09:41:49;;;;;;;21.42;16.38;;;22.70;99.90;;;;;;5037361;28;20056;-71
2023/06/21 09:44:20;;;;;;;20.50;16.83;;;22.80;99.90;;;;;;5027742;28;20022;-71
2023/06/21 09:46:57;;;;;;;25.35;17.10;;;22.90;99.90;;;;;;5043678;28;20029;-72
2023/06/21 09:49:26;;;;;;;20.02;15.48;;;23.00;99.90;;;;;;5027891;28;20389;-73
2023/06/21 09:51:51;;;;;;;20.17;14.52;;;23.10;99.90;;;;;;5044421;28;20060;-74
2023/06/21 09:54:17;;;;;;;17.10;14.48;;;23.10;99.90;;;;;;5045053;28;20033;-74
2023/06/21 09:56:42;;;;;;;18.15;13.10;;;23.20;99.90;;;;;;5044355;28;20096;-75
2023/06/21 09:59:38;;;;;;;17.17;13.73;;;23.20;99.90;;;;;;5045901;28;20049;-77
2023/06/21 10:02:04;;;;;;;19.65;14.50;;;23.20;99.90;;;;;;5042895;28;20030;-70
2023/06/21 10:04:42;;;;;;;16.38;13.25;;;23.40;99.90;;;;;;5044434;28;20037;-74
2023/06/21 10:07:08;;;;;;;16.27;13.75;;;23.40;99.90;;;;;;5041852;28;20547;-75
2023/06/21 10:09:37;;;;;;;15.82;13.63;;;23.50;99.90;;;;;;5024241;28;20033;-73
2023/06/21 10:12:09;;;;;;;17.60;12.65;;;23.50;99.90;;;;;;5028793;28;20080;-79
2023/06/21 10:14:35;;;;;;;13.27;11.52;;;23.60;99.90;;;;;;5046057;28;20478;-77
2023/06/21 10:17:03;;;;;;;16.52;13.48;;;23.70;99.90;;;;;;5043413;28;20035;-72
2023/06/21 10:19:32;;;;;;;19.67;14.77;;;23.80;99.90;;;;;;5031784;28;20039;-72
2023/06/21 10:22:20;;;;;;;17.52;14.20;;;23.90;99.90;;;;;;5040469;28;20025;-72
2023/06/21 10:24:52;;;;;;;19.58;14.02;;;24.00;99.90;;;;;;5045043;28;20033;-76
2023/06/21 10:27:20;;;;;;;18.52;13.02;;;23.80;99.90;;;;;;5039966;28;20116;-72
2023/06/21 10:29:56;;;;;;;20.42;14.20;;;23.80;99.90;;;;;;5050264;28;20034;-74
2023/06/21 10:32:24;;;;;;;17.00;14.43;;;23.80;99.90;;;;;;5027843;28;20567;-72
2023/06/21 10:35:03;;;;;;;18.85;13.02;;;23.90;99.90;;;;;;5029414;28;20022;-73
2023/06/21 10:37:32;;;;;;;15.68;12.13;;;23.90;99.90;;;;;;5045086;28;20033;-74
2023/06/21 10:40:04;;;;;;;16.38;13.40;;;24.10;99.90;;;;;;5043461;28;20036;-71
2023/06/21 10:42:31;;;;;;;20.98;14.43;;;24.20;99.90;;;;;;5040180;28;20091;-80
2023/06/21 10:44:59;;;;;;;17.63;13.95;;;24.20;99.90;;;;;;5024633;28;20033;-74
2023/06/21 10:47:26;;;;;;;18.73;12.63;;;24.10;99.90;;;;;;5021946;28;20181;-77
2023/06/21 10:49:57;;;;;;;14.18;11.90;;;24.20;99.90;;;;;;5043575;28;20017;-76
2023/06/21 10:52:26;;;;;;;13.55;11.88;;;24.30;99.90;;;;;;5044036;28;20049;-76
2023/06/21 10:54:57;;;;;;;20.05;13.68;;;24.40;99.90;;;;;;5043848;28;20061;-75
2023/06/21 10:57:26;;;;;;;16.20;13.30;;;24.40;99.90;;;;;;5036103;28;20061;-73
2023/06/21 10:59:54;;;;;;;15.52;12.90;;;24.50;99.90;;;;;;5032688;28;20052;-72
2023/06/21 11:02:20;;;;;;;14.60;10.98;;;24.50;99.90;;;;;;5038952;28;20035;-72
2023/06/21 11:05:18;;;;;;;16.38;13.57;;;24.50;99.90;;;;;;5030501;28;20040;-73
2023/06/21 11:08:04;;;;;;;12.98;10.35;;;24.50;99.90;;;;;;5025911;28;20450;-73
2023/06/21 11:10:39;;;;;;;11.18;9.13;;;24.70;99.90;;;;;;5044243;28;20035;-70
2023/06/21 11:13:06;;;;;;;12.52;9.73;;;24.70;99.90;;;;;;5043109;28;20026;-76
2023/06/21 11:15:32;;;;;;;11.60;9.63;;;24.90;99.90;;;;;;5044126;28;20029;-73
2023/06/21 11:18:06;;;;;;;10.43;8.20;;;25.00;99.90;;;;;;5042623;28;20052;-74
2023/06/21 11:20:43;;;;;;;12.00;8.88;;;25.00;99.90;;;;;;5024547;28;20037;-73
2023/06/21 11:23:09;;;;;;;12.88;9.82;;;24.80;99.90;;;;;;5044286;28;20097;-71
2023/06/21 11:25:38;;;;;;;11.60;9.48;;;24.80;99.90;;;;;;5026651;28;20387;-72
2023/06/21 11:28:19;;;;;;;13.23;8.52;;;24.90;99.90;;;;;;5037646;28;20025;-73
2023/06/21 11:31:00;;;;;;;10.52;7.75;;;24.80;99.90;;;;;;5044442;28;20041;-71
2023/06/21 11:33:29;;;;;;;8.65;7.28;;;24.90;99.90;;;;;;5042724;28;20025;-75
2023/06/21 11:36:07;;;;;;;11.88;6.97;;;25.00;99.90;;;;;;5022172;28;20394;-71
2023/06/21 11:38:35;;;;;;;10.05;7.20;;;25.30;99.90;;;;;;5035173;28;20048;-74
2023/06/21 11:41:02;;;;;;;9.90;8.45;;;25.50;99.90;;;;;;5042891;28;20029;-73
2023/06/21 11:43:28;;;;;;;9.18;8.23;;;25.70;99.90;;;;;;5034390;28;20029;-74
2023/06/21 11:46:03;;;;;;;9.90;8.43;;;25.60;99.90;;;;;;5027490;28;20029;-73
2023/06/21 11:48:30;;;;;;;10.43;8.40;;;25.60;99.90;;;;;;5022081;28;20092;-72
2023/06/21 11:51:07;;;;;;;11.38;7.55;;;25.50;99.90;;;;;;5024006;28;20018;-72
2023/06/21 11:53:40;;;;;;;10.15;6.38;;;25.30;99.90;;;;;;5009390;28;20029;-72
2023/06/21 11:56:08;;;;;;;7.18;6.00;;;25.30;99.90;;;;;;5028262;28;20041;-73
2023/06/21 11:58:35;;;;;;;7.43;6.50;;;25.30;99.90;;;;;;5027638;28;20038;-72
2023/06/21 12:01:01;;;;;;;8.45;6.70;;;25.20;99.90;;;;;;5028452;28;20034;-72
2023/06/21 12:03:27;;;;;;;8.98;7.60;;;25.20;99.90;;;;;;5010642;28;20026;-72
2023/06/21 12:05:57;;;;;;;7.43;6.47;;;25.10;99.90;;;;;;5028539;28;20022;-73
2023/06/21 12:08:28;;;;;;;7.55;5.88;;;25.00;99.90;;;;;;5010623;28;20117;-71
2023/06/21 12:11:02;;;;;;;7.32;6.40;;;25.00;99.90;;;;;;5028554;28;20056;-69
2023/06/21 12:13:28;;;;;;;8.68;6.00;;;25.20;99.90;;;;;;5028671;28;20030;-75
2023/06/21 12:16:05;;;;;;;8.07;6.45;;;25.20;99.90;;;;;;5026790;28;20033;-72
2023/06/21 12:18:37;;;;;;;7.70;6.15;;;25.50;99.90;;;;;;5010598;28;20105;-71
2023/06/21 12:21:04;;;;;;;10.75;7.40;;;25.70;99.90;;;;;;5028176;28;20049;-71
2023/06/21 12:23:31;;;;;;;7.90;6.00;;;25.90;99.90;;;;;;5026766;28;20057;-71
2023/06/21 12:26:01;;;;;;;6.43;5.60;;;26.00;99.90;;;;;;5028388;28;20022;-71
2023/06/21 12:28:27;;;;;;;8.18;6.95;;;26.20;99.90;;;;;;5028308;28;20026;-72
2023/06/21 12:31:15;;;;;;;7.28;5.15;;;26.30;99.90;;;;;;5027523;28;20073;-72
2023/06/21 12:33:41;;;;;;;7.55;5.95;;;26.20;99.90;;;;;;5010319;28;20070;-69